Time;durP1;ratioP1;P1;durP2;ratioP2;P2;SDS_P1;SDS_P2;PMS_P1;PMS_P2;Temp;Humidity;BMP_temperature;BMP_pressure;BME280_temperature;BME280_humidity;BME280_pressure;Samples;Min_cycle;Max_cycle;Signal;HPM_P1;HPM_P2
2021/03/22 00:01:08;;;;;;;44.92;15.48;;;1.40;99.90;;;;;;4922471;29;20446;-87
2021/03/22 00:03:38;;;;;;;58.45;16.67;;;1.50;99.90;;;;;;4933963;29;20118;-84
2021/03/22 00:06:07;;;;;;;61.50;16.52;;;1.40;99.90;;;;;;4920440;29;20051;-84
2021/03/22 00:08:36;;;;;;;54.97;16.63;;;1.40;99.90;;;;;;4937809;29;20051;-84
2021/03/22 00:11:04;;;;;;;55.47;16.90;;;1.40;99.90;;;;;;4936915;29;20063;-84
2021/03/22 00:13:30;;;;;;;55.63;15.50;;;1.30;99.90;;;;;;4936993;29;20059;-83
2021/03/22 00:16:02;;;;;;;52.20;16.15;;;1.30;99.90;;;;;;4936993;29;20139;-84
2021/03/22 00:18:33;;;;;;;61.22;17.00;;;1.20;99.90;;;;;;4918359;29;20052;-84
2021/03/22 00:21:05;;;;;;;48.55;17.02;;;1.10;99.90;;;;;;4903910;29;20051;-85
2021/03/22 00:23:31;;;;;;;51.58;17.80;;;1.10;99.90;;;;;;4937173;29;20040;-83
2021/03/22 00:26:08;;;;;;;58.55;17.25;;;1.00;99.90;;;;;;4919632;29;20111;-84
2021/03/22 00:28:38;;;;;;;54.97;17.48;;;1.00;99.90;;;;;;4936359;29;20422;-83
2021/03/22 00:31:13;;;;;;;55.83;16.23;;;1.00;99.90;;;;;;4935821;29;20051;-84
2021/03/22 00:33:40;;;;;;;61.60;16.48;;;1.00;99.90;;;;;;4904620;29;20051;-84
2021/03/22 00:36:08;;;;;;;58.78;16.63;;;0.90;99.90;;;;;;4937231;29;20063;-84
2021/03/22 00:38:34;;;;;;;65.22;17.20;;;0.90;99.90;;;;;;4936723;29;20144;-85
2021/03/22 00:41:04;;;;;;;56.72;16.92;;;0.90;99.90;;;;;;4935826;29;20052;-85
2021/03/22 00:43:33;;;;;;;62.45;16.50;;;1.00;99.90;;;;;;4919882;29;20076;-84
2021/03/22 00:46:06;;;;;;;61.40;15.13;;;1.10;99.90;;;;;;4919452;29;20178;-83
2021/03/22 00:48:35;;;;;;;54.67;15.63;;;1.10;99.90;;;;;;4930693;29;20148;-84
2021/03/22 00:51:06;;;;;;;61.35;15.63;;;1.20;99.90;;;;;;4919508;29;20146;-84
2021/03/22 00:53:35;;;;;;;55.58;15.38;;;1.20;99.90;;;;;;4920114;29;20098;-85
2021/03/22 00:56:07;;;;;;;52.55;15.73;;;1.30;99.90;;;;;;4919097;29;20099;-85
2021/03/22 00:58:38;;;;;;;52.47;14.23;;;1.40;99.90;;;;;;4921266;29;20119;-84
2021/03/22 01:01:05;;;;;;;56.85;14.77;;;1.40;99.90;;;;;;4930775;29;20456;-85
2021/03/22 01:03:35;;;;;;;52.85;14.23;;;1.40;99.90;;;;;;4918758;29;20074;-84
2021/03/22 01:06:05;;;;;;;46.25;14.15;;;1.50;99.90;;;;;;4919107;29;20044;-85
2021/03/22 01:08:34;;;;;;;48.40;14.60;;;1.50;99.90;;;;;;4919459;29;20048;-83
2021/03/22 01:11:11;;;;;;;45.17;14.25;;;1.60;99.90;;;;;;4939037;29;20107;-83
2021/03/22 01:13:41;;;;;;;49.15;14.70;;;1.60;99.90;;;;;;4940039;29;20058;-84
2021/03/22 01:16:22;;;;;;;48.42;13.93;;;1.60;99.90;;;;;;4940124;29;20397;-84
2021/03/22 01:18:54;;;;;;;44.78;12.25;;;1.70;99.90;;;;;;4924017;29;20052;-84
2021/03/22 01:21:28;;;;;;;57.60;14.25;;;1.70;99.90;;;;;;4945368;29;20051;-85
2021/03/22 01:23:56;;;;;;;56.28;13.32;;;1.70;99.90;;;;;;4932164;29;20052;-85
2021/03/22 01:26:27;;;;;;;61.05;12.68;;;1.70;99.90;;;;;;4927918;29;20115;-84
2021/03/22 01:28:56;;;;;;;48.78;12.88;;;1.80;99.90;;;;;;4944399;29;20111;-84
2021/03/22 01:31:25;;;;;;;55.13;12.70;;;1.80;99.90;;;;;;4945064;29;20044;-84
2021/03/22 01:33:53;;;;;;;60.85;12.73;;;1.80;99.90;;;;;;4930174;29;20063;-84
2021/03/22 01:36:28;;;;;;;56.17;12.73;;;1.80;99.90;;;;;;4947424;29;20087;-86
2021/03/22 01:39:01;;;;;;;51.50;12.82;;;1.80;99.90;;;;;;4948444;29;20087;-83
2021/03/22 01:41:33;;;;;;;42.92;11.85;;;1.90;99.90;;;;;;4931718;29;20058;-85
2021/03/22 01:44:12;;;;;;;44.22;12.10;;;1.90;99.90;;;;;;4947515;29;20147;-84
2021/03/22 01:46:42;;;;;;;45.58;11.50;;;1.90;99.90;;;;;;4945426;29;20552;-83
2021/03/22 01:49:12;;;;;;;48.47;12.73;;;1.90;99.90;;;;;;4906649;29;20048;-84
2021/03/22 01:51:40;;;;;;;42.70;11.52;;;1.90;99.90;;;;;;4931654;29;20048;-84
2021/03/22 01:54:08;;;;;;;45.03;11.93;;;1.90;99.90;;;;;;4926573;29;20113;-84
2021/03/22 01:56:44;;;;;;;54.58;11.75;;;1.90;99.90;;;;;;4942181;29;20227;-84
2021/03/22 01:59:12;;;;;;;45.22;12.65;;;1.80;99.90;;;;;;4925105;29;20102;-86
2021/03/22 02:01:41;;;;;;;52.50;11.30;;;1.80;99.90;;;;;;4942250;29;20047;-85
2021/03/22 02:04:08;;;;;;;55.90;13.45;;;1.80;99.90;;;;;;4941707;29;20054;-84
2021/03/22 02:06:37;;;;;;;57.72;12.20;;;1.80;99.90;;;;;;4940888;29;20048;-84
2021/03/22 02:09:06;;;;;;;49.72;11.48;;;1.80;99.90;;;;;;4906203;29;20047;-85
2021/03/22 02:11:36;;;;;;;49.75;11.18;;;1.80;99.90;;;;;;4928837;29;20075;-84
2021/03/22 02:14:08;;;;;;;55.00;13.32;;;1.90;99.90;;;;;;4924435;29;20410;-86
2021/03/22 02:16:50;;;;;;;43.42;11.38;;;1.80;99.90;;;;;;4924767;29;20079;-84
2021/03/22 02:19:54;;;;;;;41.08;11.50;;;1.80;99.90;;;;;;4924413;29;20146;-84
2021/03/22 02:22:38;;;;;;;48.08;10.90;;;1.80;99.90;;;;;;4943603;29;20062;-84
2021/03/22 02:25:07;;;;;;;44.63;11.35;;;1.80;99.90;;;;;;4944082;29;20054;-85
2021/03/22 02:28:24;;;;;;;53.05;10.93;;;1.80;99.90;;;;;;4947540;29;20075;-83
2021/03/22 02:31:14;;;;;;;44.38;9.88;;;1.80;99.90;;;;;;4914421;29;20147;-82
2021/03/22 02:34:18;;;;;;;50.75;10.40;;;1.80;99.90;;;;;;4940702;29;20055;-85
2021/03/22 02:36:53;;;;;;;45.92;10.90;;;1.80;99.90;;;;;;4934965;29;20144;-83
2021/03/22 02:39:21;;;;;;;41.60;9.13;;;1.80;99.90;;;;;;4932703;29;20064;-84
2021/03/22 02:41:57;;;;;;;47.05;9.60;;;1.80;99.90;;;;;;4951361;28;20046;-85
2021/03/22 02:44:39;;;;;;;50.72;10.63;;;1.80;99.90;;;;;;4935438;29;20075;-85
2021/03/22 02:47:34;;;;;;;45.13;10.00;;;1.70;99.90;;;;;;4938421;29;20048;-85
2021/03/22 02:50:09;;;;;;;34.22;9.07;;;1.70;99.90;;;;;;4938862;29;20048;-85
2021/03/22 02:53:14;;;;;;;43.75;9.40;;;1.70;99.90;;;;;;4938491;29;20063;-83
2021/03/22 02:56:03;;;;;;;49.05;10.13;;;1.80;99.90;;;;;;4911500;29;20085;-84
2021/03/22 02:58:53;;;;;;;39.05;9.82;;;1.80;99.90;;;;;;4938067;29;20055;-85
2021/03/22 03:01:30;;;;;;;52.83;9.75;;;1.90;99.90;;;;;;4918730;29;20063;-85
2021/03/22 03:04:01;;;;;;;41.10;9.35;;;1.80;99.90;;;;;;4937249;29;20047;-84
2021/03/22 03:07:01;;;;;;;34.97;9.05;;;1.80;99.90;;;;;;4921238;29;20047;-84
2021/03/22 03:09:33;;;;;;;44.35;8.65;;;1.90;99.90;;;;;;4920986;29;20090;-84
2021/03/22 03:12:20;;;;;;;44.40;9.57;;;1.80;99.90;;;;;;4914037;29;20071;-84
2021/03/22 03:14:51;;;;;;;52.05;10.40;;;1.90;99.90;;;;;;4922936;29;20071;-83
2021/03/22 03:17:20;;;;;;;45.50;9.98;;;1.80;99.90;;;;;;4912699;29;20052;-84
2021/03/22 03:19:53;;;;;;;45.38;8.95;;;1.70;99.90;;;;;;4919858;29;20052;-83
2021/03/22 03:22:22;;;;;;;;;;;1.80;99.90;;;;;;4938330;29;20384;-84
2021/03/22 03:24:51;;;;;;;40.30;9.55;;;1.80;99.90;;;;;;4934850;29;20009;-84
2021/03/22 03:27:23;;;;;;;41.60;9.20;;;1.70;99.90;;;;;;4922015;29;20147;-83
2021/03/22 03:29:50;;;;;;;45.97;9.43;;;1.70;99.90;;;;;;4904598;29;20047;-83
2021/03/22 03:32:21;;;;;;;39.45;8.20;;;1.70;99.90;;;;;;4921215;29;20134;-84
2021/03/22 03:34:50;;;;;;;49.22;10.15;;;1.70;99.90;;;;;;4925906;29;20059;-85
2021/03/22 03:37:22;;;;;;;39.25;9.07;;;1.70;99.90;;;;;;4948041;29;20079;-85
2021/03/22 03:39:48;;;;;;;46.03;8.73;;;1.70;99.90;;;;;;4937676;29;20121;-83
2021/03/22 03:42:17;;;;;;;55.50;10.15;;;1.70;99.90;;;;;;4930966;29;20098;-85
2021/03/22 03:44:45;;;;;;;58.88;9.73;;;1.70;99.90;;;;;;4926505;29;20119;-84
2021/03/22 03:47:12;;;;;;;34.30;7.68;;;1.70;99.90;;;;;;4933990;29;20043;-84
2021/03/22 03:49:39;;;;;;;42.78;9.10;;;1.70;99.90;;;;;;4920689;29;20052;-85
2021/03/22 03:52:06;;;;;;;48.80;10.45;;;1.70;99.90;;;;;;4920910;29;20130;-84
2021/03/22 03:54:35;;;;;;;33.58;8.27;;;1.70;99.90;;;;;;4920995;29;20469;-85
2021/03/22 03:57:03;;;;;;;40.22;8.60;;;1.70;99.90;;;;;;4920810;29;20158;-85
2021/03/22 03:59:31;;;;;;;53.03;8.70;;;1.70;99.90;;;;;;4920392;29;20461;-84
2021/03/22 04:02:05;;;;;;;40.13;8.68;;;1.70;99.90;;;;;;4920127;29;20059;-83
2021/03/22 04:04:31;;;;;;;45.20;9.30;;;1.80;99.90;;;;;;4936361;29;20116;-84
2021/03/22 04:06:58;;;;;;;42.85;9.45;;;1.70;99.90;;;;;;4920260;29;20086;-86
2021/03/22 04:09:27;;;;;;;51.67;9.10;;;1.80;99.90;;;;;;4904439;29;20052;-83
2021/03/22 04:11:54;;;;;;;49.67;9.65;;;1.80;99.90;;;;;;4920328;29;20044;-85
2021/03/22 04:14:25;;;;;;;38.55;8.43;;;1.70;99.90;;;;;;4920693;29;20053;-83
2021/03/22 04:16:57;;;;;;;45.40;9.13;;;1.80;99.90;;;;;;4936967;29;20059;-83
2021/03/22 04:19:24;;;;;;;54.08;9.85;;;1.80;99.90;;;;;;4937145;29;20170;-83
2021/03/22 04:21:53;;;;;;;53.92;10.57;;;1.80;99.90;;;;;;4933857;29;20056;-85
2021/03/22 04:24:20;;;;;;;46.20;9.70;;;1.80;99.90;;;;;;4935574;29;20139;-84
2021/03/22 04:26:50;;;;;;;51.67;9.20;;;1.80;99.90;;;;;;4919199;29;20059;-84
2021/03/22 04:29:16;;;;;;;42.45;8.13;;;1.80;99.90;;;;;;4904813;29;20067;-84
2021/03/22 04:31:43;;;;;;;51.28;8.85;;;1.80;99.90;;;;;;4904534;29;20043;-84
2021/03/22 04:34:15;;;;;;;46.78;8.80;;;1.80;99.90;;;;;;4919719;29;20087;-84
2021/03/22 04:36:41;;;;;;;35.60;9.07;;;1.80;99.90;;;;;;4936697;29;20047;-84
2021/03/22 04:39:08;;;;;;;50.38;9.65;;;1.70;99.90;;;;;;4918076;29;20477;-84
2021/03/22 04:41:36;;;;;;;56.15;9.80;;;1.70;99.90;;;;;;4920001;29;20422;-85
2021/03/22 04:44:07;;;;;;;46.13;8.82;;;1.70;99.90;;;;;;4920237;29;20385;-86
2021/03/22 04:46:38;;;;;;;38.67;10.20;;;1.70;99.90;;;;;;4940740;29;20067;-84
2021/03/22 04:49:08;;;;;;;44.17;9.68;;;1.70;99.90;;;;;;4939878;29;20062;-85
2021/03/22 04:51:35;;;;;;;52.92;10.23;;;1.80;99.90;;;;;;4908160;29;20051;-84
2021/03/22 04:54:11;;;;;;;42.92;10.05;;;1.80;99.90;;;;;;4939720;29;20470;-84
2021/03/22 04:56:38;;;;;;;40.20;9.02;;;1.80;99.90;;;;;;4940043;29;20131;-85
2021/03/22 04:59:08;;;;;;;48.85;10.20;;;1.70;99.90;;;;;;4923899;29;20538;-85
2021/03/22 05:01:37;;;;;;;47.20;9.93;;;1.70;99.90;;;;;;4924636;29;20065;-84
2021/03/22 05:04:04;;;;;;;45.65;9.20;;;1.70;99.90;;;;;;4921877;29;20411;-85
2021/03/22 05:06:33;;;;;;;36.22;8.40;;;1.70;99.90;;;;;;4915274;29;20044;-83
2021/03/22 05:09:00;;;;;;;52.83;9.75;;;1.70;99.90;;;;;;4922700;29;20114;-84
2021/03/22 05:11:28;;;;;;;42.63;8.35;;;1.70;99.90;;;;;;4923101;29;20066;-85
2021/03/22 05:13:54;;;;;;;46.80;8.30;;;1.70;99.90;;;;;;4923779;29;20508;-85
2021/03/22 05:16:22;;;;;;;36.35;8.38;;;1.70;99.90;;;;;;4940089;29;20130;-84
2021/03/22 05:18:49;;;;;;;45.80;8.85;;;1.70;99.90;;;;;;4924058;29;20134;-84
2021/03/22 05:21:18;;;;;;;44.53;9.15;;;1.60;99.90;;;;;;4923001;29;20047;-84
2021/03/22 05:23:46;;;;;;;50.53;9.07;;;1.70;99.90;;;;;;4920569;29;20427;-84
2021/03/22 05:26:12;;;;;;;45.00;7.15;;;1.70;99.90;;;;;;4923060;29;20130;-84
2021/03/22 05:28:41;;;;;;;35.00;7.50;;;1.70;99.90;;;;;;4939396;29;20395;-84
2021/03/22 05:31:10;;;;;;;34.45;7.95;;;1.70;99.90;;;;;;4923438;29;20122;-83
2021/03/22 05:33:41;;;;;;;42.80;8.25;;;1.70;99.90;;;;;;4947376;29;20061;-84
2021/03/22 05:36:14;;;;;;;33.38;7.05;;;1.70;99.90;;;;;;4948997;29;20095;-87
2021/03/22 05:38:42;;;;;;;37.78;7.75;;;1.70;99.90;;;;;;4935758;29;20051;-84
2021/03/22 05:41:17;;;;;;;39.63;7.47;;;1.70;99.90;;;;;;4932197;29;20082;-86
2021/03/22 05:43:52;;;;;;;36.97;7.22;;;1.80;99.90;;;;;;4940738;29;20087;-85
2021/03/22 05:46:42;;;;;;;41.53;8.00;;;1.80;99.90;;;;;;4940205;29;20043;-85
2021/03/22 05:49:22;;;;;;;32.00;7.55;;;1.80;99.90;;;;;;4926483;29;20059;-86
2021/03/22 05:51:54;;;;;;;41.20;7.95;;;1.80;99.90;;;;;;4921202;29;20147;-86
2021/03/22 05:54:50;;;;;;;42.88;8.05;;;1.80;99.90;;;;;;4922288;29;20085;-87
2021/03/22 05:57:26;;;;;;;46.65;8.73;;;1.80;99.90;;;;;;4925169;29;20055;-88
2021/03/22 06:00:11;;;;;;;38.08;11.48;;;1.80;99.90;;;;;;4949773;29;20091;-86
2021/03/22 06:02:51;;;;;;;49.10;13.82;;;1.80;99.90;;;;;;4930908;29;20114;-88
2021/03/22 06:05:43;;;;;;;30.63;7.10;;;1.80;99.90;;;;;;4937565;29;20055;-90
2021/03/22 06:08:45;;;;;;;33.15;7.18;;;1.80;99.90;;;;;;4940796;28;20056;-89
2021/03/22 06:11:40;;;;;;;37.17;8.85;;;1.80;99.90;;;;;;4891960;29;20053;-90
2021/03/22 06:14:34;;;;;;;34.58;7.25;;;1.90;99.90;;;;;;4908261;29;20056;-89
2021/03/22 06:17:44;;;;;;;36.25;7.57;;;1.90;99.90;;;;;;4942594;29;20079;-89
2021/03/22 06:20:19;;;;;;;31.92;7.40;;;2.00;99.90;;;;;;4943160;29;20067;-88
2021/03/22 06:22:47;;;;;;;31.75;7.20;;;2.00;99.90;;;;;;4924165;29;20531;-89
2021/03/22 06:25:20;;;;;;;43.13;8.90;;;2.00;99.90;;;;;;4924374;29;20079;-89
2021/03/22 06:27:53;;;;;;;35.38;8.18;;;2.10;99.90;;;;;;4940879;29;20146;-87
2021/03/22 06:30:23;;;;;;;32.25;8.02;;;2.10;99.90;;;;;;4941085;29;20365;-90
2021/03/22 06:32:54;;;;;;;39.17;8.55;;;2.10;99.90;;;;;;4940185;29;20331;-87
2021/03/22 06:35:54;;;;;;;;;;;;;;;;;;;;;
2021/03/22 06:38:23;;;;;;;37.80;7.80;;;2.20;99.90;;;;;;4930216;29;20055;-87
2021/03/22 06:40:49;;;;;;;40.45;9.23;;;2.20;99.90;;;;;;4923426;29;20382;-88
2021/03/22 06:43:20;;;;;;;37.83;8.50;;;2.10;99.90;;;;;;4944481;29;20365;-86
2021/03/22 06:46:06;;;;;;;39.00;9.25;;;2.20;99.90;;;;;;4940307;29;20074;-89
2021/03/22 06:48:36;;;;;;;33.38;9.07;;;2.20;99.90;;;;;;4945481;29;20086;-90
2021/03/22 06:51:02;;;;;;;49.13;8.40;;;2.20;99.90;;;;;;4940696;29;20051;-91
2021/03/22 06:53:34;;;;;;;33.65;8.68;;;2.20;99.90;;;;;;4940612;29;20075;-86
2021/03/22 06:56:30;;;;;;;39.78;7.82;;;2.30;99.90;;;;;;4937728;29;20164;-89
2021/03/22 06:59:21;;;;;;;37.20;7.80;;;2.30;99.90;;;;;;4938299;29;20071;-85
2021/03/22 07:01:50;;;;;;;35.05;8.48;;;2.30;99.90;;;;;;4941873;29;20052;-86
2021/03/22 07:04:31;;;;;;;42.60;8.88;;;2.30;99.90;;;;;;4924575;29;20380;-86
2021/03/22 07:07:23;;;;;;;36.75;8.05;;;2.30;99.90;;;;;;4936239;29;20084;-88
2021/03/22 07:10:16;;;;;;;85.60;7.75;;;2.30;99.90;;;;;;4928770;29;20086;-87
2021/03/22 07:13:05;;;;;;;46.40;8.52;;;2.40;99.90;;;;;;4923031;29;20461;-84
2021/03/22 07:15:35;;;;;;;44.50;9.82;;;2.40;99.90;;;;;;4925608;29;20051;-86
2021/03/22 07:18:16;;;;;;;27.17;7.05;;;2.40;99.90;;;;;;4921583;29;20058;-88
2021/03/22 07:20:59;;;;;;;40.92;7.88;;;2.50;99.90;;;;;;4937340;29;20382;-87
2021/03/22 07:23:59;;;;;;;37.67;8.40;;;2.60;99.90;;;;;;4942667;29;20062;-87
2021/03/22 07:27:03;;;;;;;37.55;7.57;;;2.50;99.90;;;;;;4939513;29;20134;-85
2021/03/22 07:29:55;;;;;;;46.75;7.90;;;2.50;99.90;;;;;;4944418;29;20066;-86
2021/03/22 07:32:51;;;;;;;42.22;8.90;;;2.50;99.90;;;;;;4926086;29;20122;-87
2021/03/22 07:35:50;;;;;;;40.72;7.75;;;2.50;99.90;;;;;;4939289;29;20043;-82
2021/03/22 07:38:32;;;;;;;41.03;8.40;;;2.50;99.90;;;;;;4941691;29;20527;-86
2021/03/22 07:41:46;;;;;;;43.20;8.60;;;2.50;99.90;;;;;;4943092;29;20052;-87
2021/03/22 07:44:44;;;;;;;41.35;8.52;;;2.40;99.90;;;;;;4911647;29;20059;-86
2021/03/22 07:47:29;;;;;;;39.03;7.78;;;2.50;99.90;;;;;;4946832;29;20105;-87
2021/03/22 07:50:16;;;;;;;30.63;6.75;;;2.50;99.90;;;;;;4940000;29;20067;-86
2021/03/22 07:53:24;;;;;;;48.08;10.88;;;2.60;99.90;;;;;;4943406;29;20106;-86
2021/03/22 07:56:41;;;;;;;38.70;8.02;;;2.70;99.90;;;;;;4935141;29;20060;-85
2021/03/22 07:59:42;;;;;;;33.38;7.75;;;2.80;99.90;;;;;;4922508;29;20051;-86
2021/03/22 08:02:49;;;;;;;43.97;7.80;;;3.00;99.90;;;;;;4940101;29;20075;-86
2021/03/22 08:05:35;;;;;;;37.75;7.43;;;3.20;99.90;;;;;;4924160;29;20048;-86
2021/03/22 08:08:19;;;;;;;30.42;7.03;;;3.30;99.90;;;;;;4937556;29;20079;-86
2021/03/22 08:10:53;;;;;;;37.10;7.65;;;3.30;99.90;;;;;;4949481;28;20181;-85
2021/03/22 08:13:57;;;;;;;33.95;7.85;;;3.30;99.90;;;;;;4937880;29;20473;-88
2021/03/22 08:16:36;;;;;;;30.30;6.38;;;3.50;99.90;;;;;;4938589;29;20043;-87
2021/03/22 08:19:14;;;;;;;36.17;7.18;;;3.60;99.90;;;;;;4938425;29;20458;-86
2021/03/22 08:22:09;;;;;;;32.90;7.10;;;3.70;99.90;;;;;;4939942;29;20114;-88
2021/03/22 08:24:54;;;;;;;29.90;7.07;;;3.60;99.90;;;;;;4954043;29;20119;-87
2021/03/22 08:27:31;;;;;;;39.33;7.00;;;3.70;99.90;;;;;;4951829;29;20118;-87
2021/03/22 08:30:01;;;;;;;32.47;6.70;;;3.70;99.90;;;;;;4946282;28;20103;-87
2021/03/22 08:32:48;;;;;;;25.88;5.22;;;3.70;99.90;;;;;;4944651;29;20115;-88
2021/03/22 08:35:22;;;;;;;25.85;5.13;;;3.70;99.90;;;;;;4940419;29;20075;-87
2021/03/22 08:37:57;;;;;;;19.60;5.53;;;3.80;99.90;;;;;;4942054;29;20040;-87
2021/03/22 08:40:53;;;;;;;20.13;4.45;;;4.00;99.90;;;;;;4912956;29;20083;-88
2021/03/22 08:43:47;;;;;;;21.98;4.95;;;4.20;99.90;;;;;;4947671;29;20135;-88
2021/03/22 08:46:18;;;;;;;14.88;4.32;;;4.30;99.90;;;;;;4936706;29;20079;-87
2021/03/22 08:48:46;;;;;;;20.73;5.00;;;4.40;99.90;;;;;;4940925;29;20583;-85
2021/03/22 08:51:31;;;;;;;21.17;4.82;;;4.40;99.90;;;;;;4942214;29;20382;-88
2021/03/22 08:53:59;;;;;;;27.90;4.80;;;4.40;99.90;;;;;;4937697;29;20114;-87
2021/03/22 08:56:52;;;;;;;20.58;5.15;;;4.40;99.90;;;;;;4937450;29;20135;-88
2021/03/22 08:59:37;;;;;;;20.02;4.25;;;4.40;99.90;;;;;;4930824;29;20138;-87
2021/03/22 09:03:04;;;;;;;14.15;3.83;;;4.60;99.90;;;;;;4931224;29;20071;-87
2021/03/22 09:05:35;;;;;;;18.92;4.97;;;4.90;99.90;;;;;;4927547;29;20051;-88
2021/03/22 09:08:22;;;;;;;19.83;3.95;;;5.10;99.90;;;;;;4921756;29;20200;-87
2021/03/22 09:11:25;;;;;;;14.75;4.32;;;5.40;99.90;;;;;;4937227;29;20087;-89
2021/03/22 09:14:03;;;;;;;18.10;4.03;;;5.70;99.90;;;;;;4931098;29;20052;-91
2021/03/22 09:17:15;;;;;;;;;;;;;;;;;;;;;
2021/03/22 09:20:36;;;;;;;20.38;4.00;;;5.90;99.90;;;;;;4941623;29;20172;-88
2021/03/22 09:23:53;;;;;;;;;;;;;;;;;;;;;
2021/03/22 09:27:22;;;;;;;14.98;3.63;;;5.60;99.90;;;;;;4945864;29;20051;-88
2021/03/22 09:30:23;;;;;;;12.98;3.72;;;5.40;99.90;;;;;;4875701;29;20049;-89
2021/03/22 09:33:24;;;;;;;11.30;3.45;;;5.10;99.90;;;;;;4940294;29;20106;-89
2021/03/22 09:36:35;;;;;;;11.88;4.03;;;5.10;99.90;;;;;;4945693;29;20143;-88
2021/03/22 09:39:50;;;;;;;10.10;2.90;;;5.20;99.90;;;;;;4835337;29;20054;-89
2021/03/22 09:43:33;;;;;;;9.07;3.28;;;5.20;99.90;;;;;;4834387;29;20069;-88
2021/03/22 09:50:11;;;;;;;20.00;3.70;;;5.00;99.90;;;;;;4847425;29;20077;-85
2021/03/22 09:52:51;;;;;;;11.77;3.72;;;4.90;99.90;;;;;;4849814;29;20070;-87
2021/03/22 09:56:02;;;;;;;20.50;4.82;;;4.80;99.90;;;;;;4845995;29;20050;-87
2021/03/22 09:59:34;;;;;;;;;;;;;;;;;;;;;
2021/03/22 10:06:29;;;;;;;9.68;3.42;;;5.20;99.90;;;;;;4846439;29;20049;-85
2021/03/22 10:09:05;;;;;;;;;;;5.50;99.90;;;;;;4842715;29;20388;-86
2021/03/22 10:11:50;;;;;;;10.57;3.95;;;5.60;99.90;;;;;;4843532;29;19936;-85
2021/03/22 10:14:44;;;;;;;16.95;4.43;;;5.70;99.90;;;;;;4838263;29;20054;-87
2021/03/22 10:17:30;;;;;;;15.10;4.20;;;5.80;99.90;;;;;;4909833;29;20434;-87
2021/03/22 10:20:37;;;;;;;14.48;4.13;;;6.10;99.90;;;;;;4910449;29;20060;-85
2021/03/22 10:23:33;;;;;;;13.18;3.97;;;6.10;99.90;;;;;;4923894;29;20364;-85
2021/03/22 10:26:35;;;;;;;18.58;3.53;;;6.10;99.90;;;;;;4922450;29;20130;-85
2021/03/22 10:29:27;;;;;;;;;;;6.30;99.90;;;;;;4909974;29;20044;-84
2021/03/22 10:32:17;;;;;;;13.07;2.85;;;6.50;99.90;;;;;;4903836;29;19933;-82
2021/03/22 10:34:52;;;;;;;10.75;2.80;;;6.50;97.60;;;;;;4906145;29;20387;-83
2021/03/22 10:37:38;;;;;;;10.98;2.70;;;6.40;94.70;;;;;;4912282;29;20048;-84
2021/03/22 10:40:37;;;;;;;9.70;3.58;;;6.50;94.20;;;;;;4904441;29;20068;-84
2021/03/22 10:43:26;;;;;;;11.77;3.28;;;6.50;94.50;;;;;;4902495;29;20119;-85
2021/03/22 10:46:26;;;;;;;7.55;2.95;;;6.20;96.20;;;;;;4905727;29;20055;-85
2021/03/22 10:49:21;;;;;;;8.40;2.95;;;5.90;97.10;;;;;;4901775;29;20059;-86
2021/03/22 10:52:01;;;;;;;8.15;2.90;;;5.80;99.60;;;;;;4919943;29;20052;-84
2021/03/22 10:54:45;;;;;;;11.52;3.85;;;5.60;99.90;;;;;;4906554;29;20044;-85
2021/03/22 10:57:38;;;;;;;11.52;3.10;;;5.50;99.90;;;;;;4914999;29;20066;-84
2021/03/22 11:00:15;;;;;;;10.60;4.18;;;5.40;99.90;;;;;;4928753;29;21687;-85
2021/03/22 11:02:48;;;;;;;8.95;3.13;;;5.20;99.90;;;;;;4928941;29;20101;-83
2021/03/22 11:05:20;;;;;;;13.98;3.70;;;5.00;99.90;;;;;;4924170;29;20063;-84
2021/03/22 11:08:05;;;;;;;9.70;2.70;;;4.80;99.90;;;;;;4920816;29;20432;-83
2021/03/22 11:10:37;;;;;;;12.30;3.20;;;4.80;99.90;;;;;;4925186;29;20059;-83
2021/03/22 11:13:15;;;;;;;14.00;3.25;;;4.80;99.90;;;;;;4923289;29;20314;-84
2021/03/22 11:15:54;;;;;;;9.95;2.63;;;4.90;99.90;;;;;;4929761;29;20178;-83
2021/03/22 11:18:23;;;;;;;11.05;3.35;;;4.90;99.90;;;;;;4923048;29;20055;-83
2021/03/22 11:20:55;;;;;;;10.75;3.38;;;5.00;99.90;;;;;;4928458;29;20103;-85
2021/03/22 11:23:44;;;;;;;16.20;3.58;;;5.30;99.90;;;;;;4921477;29;20095;-84
2021/03/22 11:26:31;;;;;;;12.95;2.78;;;5.60;99.90;;;;;;4910331;29;20090;-84
2021/03/22 11:29:26;;;;;;;12.98;2.95;;;5.90;99.90;;;;;;4904421;29;20150;-84
2021/03/22 11:32:14;;;;;;;12.00;2.90;;;6.30;99.90;;;;;;4918537;29;20121;-83
2021/03/22 11:34:45;;;;;;;11.15;2.90;;;6.60;98.20;;;;;;4915128;29;20058;-84
2021/03/22 11:37:20;;;;;;;8.55;2.60;;;6.60;95.00;;;;;;4939156;29;20047;-89
2021/03/22 11:40:05;;;;;;;13.13;2.88;;;6.40;93.10;;;;;;4944199;29;20060;-87
2021/03/22 11:43:01;;;;;;;9.57;2.40;;;6.50;95.50;;;;;;4934134;29;20064;-88
2021/03/22 11:45:45;;;;;;;14.02;3.03;;;6.70;93.20;;;;;;4933805;29;20087;-87
2021/03/22 11:48:21;;;;;;;12.38;3.03;;;6.50;92.70;;;;;;4936737;29;20067;-88
2021/03/22 11:50:57;;;;;;;8.57;2.95;;;6.50;92.30;;;;;;4936816;29;20044;-88
2021/03/22 11:53:29;;;;;;;9.77;2.90;;;6.40;93.90;;;;;;4932549;29;20405;-85
2021/03/22 11:56:20;;;;;;;13.52;3.17;;;6.40;92.80;;;;;;4927097;29;20048;-89
2021/03/22 11:58:49;;;;;;;10.35;3.38;;;6.10;98.60;;;;;;4919589;29;20063;-87
2021/03/22 12:01:35;;;;;;;12.50;3.30;;;5.90;99.60;;;;;;4936731;29;20053;-88
2021/03/22 12:04:11;;;;;;;12.05;3.45;;;5.70;99.90;;;;;;4936503;29;20058;-89
2021/03/22 12:06:58;;;;;;;19.00;2.78;;;5.70;99.90;;;;;;4932677;29;20078;-88
2021/03/22 12:09:31;;;;;;;15.15;3.75;;;5.80;99.80;;;;;;4939256;29;20044;-88
2021/03/22 12:12:03;;;;;;;13.90;3.50;;;5.90;99.90;;;;;;4938646;29;20063;-87
2021/03/22 12:14:34;;;;;;;13.80;3.95;;;6.10;99.90;;;;;;4947729;29;20100;-87
2021/03/22 12:17:13;;;;;;;8.70;2.88;;;6.10;99.90;;;;;;4951148;29;20051;-88
2021/03/22 12:19:43;;;;;;;10.32;3.15;;;6.10;99.50;;;;;;4922446;29;20161;-86
2021/03/22 12:22:17;;;;;;;8.55;3.10;;;6.20;99.40;;;;;;4935639;29;20131;-86
2021/03/22 12:24:47;;;;;;;8.80;2.83;;;6.30;99.60;;;;;;4920371;29;20078;-87
2021/03/22 12:27:21;;;;;;;11.65;3.28;;;6.30;99.10;;;;;;4940698;29;20061;-88
2021/03/22 12:29:52;;;;;;;9.05;2.65;;;6.40;98.10;;;;;;4941277;29;20241;-87
2021/03/22 12:32:28;;;;;;;9.52;3.03;;;6.50;94.80;;;;;;4939273;29;20075;-88
2021/03/22 12:34:56;;;;;;;10.23;4.18;;;6.60;96.70;;;;;;4919921;29;20127;-86
2021/03/22 12:37:35;;;;;;;11.68;2.83;;;6.60;94.60;;;;;;4935105;29;20111;-87
2021/03/22 12:40:11;;;;;;;10.13;2.75;;;6.60;93.50;;;;;;4933131;29;20397;-87
2021/03/22 12:42:47;;;;;;;11.13;2.90;;;6.50;93.80;;;;;;4920381;29;20048;-87
2021/03/22 12:45:40;;;;;;;8.50;2.63;;;6.30;94.10;;;;;;4915485;29;20051;-88
2021/03/22 12:48:13;;;;;;;5.72;2.97;;;6.10;98.40;;;;;;4929712;29;20138;-85
2021/03/22 12:50:49;;;;;;;10.35;3.03;;;6.00;98.90;;;;;;4936399;29;20075;-85
2021/03/22 12:53:18;;;;;;;4.82;2.90;;;6.00;99.50;;;;;;4931293;29;20067;-89
2021/03/22 12:55:46;;;;;;;9.52;3.22;;;6.00;99.90;;;;;;4932963;29;20091;-89
2021/03/22 12:58:23;;;;;;;11.88;3.88;;;5.80;99.90;;;;;;4940106;29;20059;-87
2021/03/22 13:00:58;;;;;;;9.93;3.45;;;5.70;99.90;;;;;;4925361;29;20051;-88
2021/03/22 13:03:38;;;;;;;17.42;4.47;;;5.70;99.90;;;;;;4938089;29;20052;-90
2021/03/22 13:06:08;;;;;;;10.82;4.00;;;5.60;99.90;;;;;;4934187;29;20056;-88
2021/03/22 13:08:35;;;;;;;10.02;4.15;;;5.60;99.90;;;;;;4942088;29;20055;-89
2021/03/22 13:11:09;;;;;;;17.42;4.00;;;5.50;99.90;;;;;;4926488;29;20055;-89
2021/03/22 13:13:36;;;;;;;17.33;4.28;;;5.50;99.90;;;;;;4934160;29;20067;-87
2021/03/22 13:16:03;;;;;;;11.57;4.28;;;5.70;99.90;;;;;;4927306;29;20040;-84
2021/03/22 13:18:38;;;;;;;10.20;4.13;;;5.80;99.90;;;;;;4930386;29;20052;-86
2021/03/22 13:21:19;;;;;;;14.23;5.10;;;5.70;99.90;;;;;;4954749;29;20111;-87
2021/03/22 13:23:50;;;;;;;15.10;4.78;;;5.60;99.90;;;;;;4929878;29;20135;-87
2021/03/22 13:26:18;;;;;;;13.68;4.97;;;5.50;99.90;;;;;;4909227;29;20135;-86
2021/03/22 13:29:00;;;;;;;16.40;5.53;;;5.40;99.90;;;;;;4912175;29;20122;-86
2021/03/22 13:31:33;;;;;;;11.35;5.05;;;5.20;99.90;;;;;;4932678;29;20047;-88
2021/03/22 13:34:22;;;;;;;12.98;5.28;;;5.20;99.90;;;;;;4935316;29;20126;-86
2021/03/22 13:37:08;;;;;;;14.07;5.22;;;5.10;99.90;;;;;;4938724;29;20055;-87
2021/03/22 13:39:36;;;;;;;17.48;5.43;;;5.20;99.90;;;;;;4937990;29;20050;-88
2021/03/22 13:42:05;;;;;;;17.27;4.82;;;5.30;99.90;;;;;;4933289;29;20067;-87
2021/03/22 13:44:32;;;;;;;14.15;4.70;;;5.30;99.90;;;;;;4947567;29;20111;-88
2021/03/22 13:47:04;;;;;;;11.80;4.68;;;5.40;99.90;;;;;;4921658;29;20048;-88
2021/03/22 13:49:31;;;;;;;;;;;5.40;99.90;;;;;;4941715;29;20150;-87
2021/03/22 13:52:00;;;;;;;19.35;5.63;;;5.40;99.90;;;;;;4924920;29;19923;-88
2021/03/22 13:54:32;;;;;;;17.00;4.80;;;5.30;99.90;;;;;;4924074;29;20461;-88
2021/03/22 13:57:07;;;;;;;11.90;5.20;;;5.20;99.90;;;;;;4940571;29;20461;-88
2021/03/22 13:59:34;;;;;;;13.15;5.45;;;5.10;99.90;;;;;;4922799;29;20481;-89